sensor_id;sensor_type;location;lat;lon;timestamp;P1;durP1;ratioP1;P2;durP2;ratioP2
43650;SDS011;29247;50.944;5.382;2023-02-01T00:00:31;13.85;;;3.60;;
43650;SDS011;29247;50.944;5.382;2023-02-01T00:02:59;11.32;;;3.70;;
43650;SDS011;29247;50.944;5.382;2023-02-01T00:05:25;14.80;;;3.65;;
43650;SDS011;29247;50.944;5.382;2023-02-01T00:07:54;13.52;;;4.13;;
43650;SDS011;29247;50.944;5.382;2023-02-01T00:10:22;9.18;;;4.10;;
43650;SDS011;29247;50.944;5.382;2023-02-01T00:15:18;14.95;;;3.80;;
43650;SDS011;29247;50.944;5.382;2023-02-01T00:17:45;11.25;;;4.20;;
43650;SDS011;29247;50.944;5.382;2023-02-01T00:20:13;12.43;;;4.22;;
43650;SDS011;29247;50.944;5.382;2023-02-01T00:22:39;14.88;;;5.57;;
43650;SDS011;29247;50.944;5.382;2023-02-01T00:25:05;12.63;;;4.70;;
43650;SDS011;29247;50.944;5.382;2023-02-01T00:30:04;11.50;;;4.70;;
43650;SDS011;29247;50.944;5.382;2023-02-01T00:32:32;7.65;;;4.25;;
43650;SDS011;29247;50.944;5.382;2023-02-01T00:34:58;15.18;;;4.45;;
43650;SDS011;29247;50.944;5.382;2023-02-01T00:37:24;9.82;;;4.40;;
43650;SDS011;29247;50.944;5.382;2023-02-01T00:39:50;15.23;;;4.88;;
43650;SDS011;29247;50.944;5.382;2023-02-01T00:42:17;13.27;;;5.20;;
43650;SDS011;29247;50.944;5.382;2023-02-01T00:44:42;13.13;;;4.88;;
43650;SDS011;29247;50.944;5.382;2023-02-01T00:47:11;10.00;;;3.95;;
43650;SDS011;29247;50.944;5.382;2023-02-01T00:49:39;13.32;;;5.25;;
43650;SDS011;29247;50.944;5.382;2023-02-01T00:52:04;13.02;;;5.88;;
43650;SDS011;29247;50.944;5.382;2023-02-01T00:54:33;14.45;;;6.00;;
43650;SDS011;29247;50.944;5.382;2023-02-01T00:57:02;21.20;;;5.97;;
43650;SDS011;29247;50.944;5.382;2023-02-01T00:59:28;22.70;;;5.63;;
43650;SDS011;29247;50.944;5.382;2023-02-01T01:01:53;18.38;;;5.80;;
43650;SDS011;29247;50.944;5.382;2023-02-01T01:04:19;8.82;;;4.68;;
43650;SDS011;29247;50.944;5.382;2023-02-01T01:06:44;15.05;;;5.07;;
43650;SDS011;29247;50.944;5.382;2023-02-01T01:09:10;14.75;;;6.43;;
43650;SDS011;29247;50.944;5.382;2023-02-01T01:11:37;21.05;;;5.80;;
43650;SDS011;29247;50.944;5.382;2023-02-01T01:14:03;9.90;;;5.18;;
43650;SDS011;29247;50.944;5.382;2023-02-01T01:16:33;15.50;;;5.10;;
43650;SDS011;29247;50.944;5.382;2023-02-01T01:19:02;11.45;;;5.32;;
43650;SDS011;29247;50.944;5.382;2023-02-01T01:21:30;12.95;;;5.10;;
43650;SDS011;29247;50.944;5.382;2023-02-01T01:23:56;18.65;;;6.07;;
43650;SDS011;29247;50.944;5.382;2023-02-01T01:26:24;13.38;;;5.30;;
43650;SDS011;29247;50.944;5.382;2023-02-01T01:28:51;10.85;;;5.40;;
43650;SDS011;29247;50.944;5.382;2023-02-01T01:31:18;20.70;;;6.47;;
43650;SDS011;29247;50.944;5.382;2023-02-01T01:33:48;16.80;;;6.68;;
43650;SDS011;29247;50.944;5.382;2023-02-01T01:36:15;17.10;;;6.15;;
43650;SDS011;29247;50.944;5.382;2023-02-01T01:38:41;20.00;;;6.53;;
43650;SDS011;29247;50.944;5.382;2023-02-01T01:41:11;9.20;;;5.43;;
43650;SDS011;29247;50.944;5.382;2023-02-01T01:46:22;21.35;;;5.60;;
43650;SDS011;29247;50.944;5.382;2023-02-01T01:48:56;17.70;;;5.78;;
43650;SDS011;29247;50.944;5.382;2023-02-01T01:51:24;16.83;;;5.82;;
43650;SDS011;29247;50.944;5.382;2023-02-01T01:54:04;12.95;;;6.20;;
43650;SDS011;29247;50.944;5.382;2023-02-01T01:56:52;17.42;;;5.55;;
43650;SDS011;29247;50.944;5.382;2023-02-01T01:59:22;13.77;;;5.95;;
43650;SDS011;29247;50.944;5.382;2023-02-01T02:01:49;14.63;;;6.30;;
43650;SDS011;29247;50.944;5.382;2023-02-01T02:04:15;18.30;;;6.38;;
43650;SDS011;29247;50.944;5.382;2023-02-01T02:06:55;19.48;;;6.15;;
43650;SDS011;29247;50.944;5.382;2023-02-01T02:09:30;18.23;;;6.70;;
43650;SDS011;29247;50.944;5.382;2023-02-01T02:12:01;19.42;;;7.97;;
43650;SDS011;29247;50.944;5.382;2023-02-01T02:14:26;17.63;;;6.10;;
43650;SDS011;29247;50.944;5.382;2023-02-01T02:17:03;16.05;;;6.05;;
43650;SDS011;29247;50.944;5.382;2023-02-01T02:42:54;18.33;;;4.47;;
43650;SDS011;29247;50.944;5.382;2023-02-01T02:46:04;7.40;;;3.67;;
43650;SDS011;29247;50.944;5.382;2023-02-01T02:54:39;14.32;;;4.60;;
43650;SDS011;29247;50.944;5.382;2023-02-01T02:57:13;13.60;;;2.67;;
43650;SDS011;29247;50.944;5.382;2023-02-01T03:00:19;16.15;;;2.85;;
43650;SDS011;29247;50.944;5.382;2023-02-01T03:03:05;14.40;;;2.78;;
43650;SDS011;29247;50.944;5.382;2023-02-01T03:05:52;16.30;;;2.40;;
43650;SDS011;29247;50.944;5.382;2023-02-01T03:08:22;11.32;;;2.13;;
43650;SDS011;29247;50.944;5.382;2023-02-01T03:13:39;16.98;;;2.40;;
43650;SDS011;29247;50.944;5.382;2023-02-01T03:16:23;8.50;;;2.92;;
43650;SDS011;29247;50.944;5.382;2023-02-01T03:19:19;9.95;;;1.80;;
43650;SDS011;29247;50.944;5.382;2023-02-01T03:21:45;14.07;;;2.05;;
43650;SDS011;29247;50.944;5.382;2023-02-01T03:24:59;9.02;;;2.65;;
43650;SDS011;29247;50.944;5.382;2023-02-01T03:30:08;13.18;;;2.15;;
43650;SDS011;29247;50.944;5.382;2023-02-01T03:32:45;7.18;;;1.90;;
43650;SDS011;29247;50.944;5.382;2023-02-01T03:38:11;12.63;;;1.88;;
43650;SDS011;29247;50.944;5.382;2023-02-01T03:41:08;8.40;;;2.25;;
43650;SDS011;29247;50.944;5.382;2023-02-01T03:44:12;9.00;;;1.92;;
43650;SDS011;29247;50.944;5.382;2023-02-01T03:46:46;5.70;;;1.90;;
43650;SDS011;29247;50.944;5.382;2023-02-01T03:49:37;12.45;;;2.08;;
43650;SDS011;29247;50.944;5.382;2023-02-01T03:52:11;12.05;;;2.10;;
43650;SDS011;29247;50.944;5.382;2023-02-01T03:54:43;16.38;;;2.70;;
43650;SDS011;29247;50.944;5.382;2023-02-01T03:57:16;11.43;;;3.13;;
43650;SDS011;29247;50.944;5.382;2023-02-01T03:59:47;7.97;;;2.10;;
43650;SDS011;29247;50.944;5.382;2023-02-01T04:02:13;9.30;;;2.00;;
43650;SDS011;29247;50.944;5.382;2023-02-01T04:04:38;9.50;;;1.85;;
43650;SDS011;29247;50.944;5.382;2023-02-01T04:07:04;6.80;;;2.05;;
43650;SDS011;29247;50.944;5.382;2023-02-01T04:09:30;10.15;;;1.90;;
43650;SDS011;29247;50.944;5.382;2023-02-01T04:11:56;16.20;;;2.20;;
43650;SDS011;29247;50.944;5.382;2023-02-01T04:14:21;8.75;;;1.83;;
43650;SDS011;29247;50.944;5.382;2023-02-01T04:16:47;17.20;;;2.05;;
43650;SDS011;29247;50.944;5.382;2023-02-01T04:19:15;11.85;;;3.20;;
43650;SDS011;29247;50.944;5.382;2023-02-01T04:21:41;11.32;;;1.67;;
43650;SDS011;29247;50.944;5.382;2023-02-01T04:24:06;9.13;;;2.15;;
43650;SDS011;29247;50.944;5.382;2023-02-01T04:26:33;6.45;;;1.35;;
43650;SDS011;29247;50.944;5.382;2023-02-01T04:28:59;10.52;;;1.90;;
43650;SDS011;29247;50.944;5.382;2023-02-01T04:31:24;10.30;;;2.25;;
43650;SDS011;29247;50.944;5.382;2023-02-01T04:33:51;12.15;;;1.90;;
43650;SDS011;29247;50.944;5.382;2023-02-01T04:36:18;14.52;;;2.10;;
43650;SDS011;29247;50.944;5.382;2023-02-01T04:38:48;6.40;;;1.77;;
43650;SDS011;29247;50.944;5.382;2023-02-01T04:41:20;6.95;;;1.30;;
43650;SDS011;29247;50.944;5.382;2023-02-01T04:43:47;13.95;;;1.98;;
43650;SDS011;29247;50.944;5.382;2023-02-01T04:46:17;10.40;;;2.05;;
43650;SDS011;29247;50.944;5.382;2023-02-01T04:48:47;11.10;;;2.00;;
43650;SDS011;29247;50.944;5.382;2023-02-01T04:51:16;13.95;;;1.98;;
43650;SDS011;29247;50.944;5.382;2023-02-01T04:53:43;9.15;;;2.10;;
43650;SDS011;29247;50.944;5.382;2023-02-01T04:56:09;12.00;;;2.78;;
43650;SDS011;29247;50.944;5.382;2023-02-01T04:58:35;10.82;;;1.85;;
43650;SDS011;29247;50.944;5.382;2023-02-01T05:01:05;10.68;;;2.17;;
43650;SDS011;29247;50.944;5.382;2023-02-01T05:03:34;7.03;;;1.73;;
43650;SDS011;29247;50.944;5.382;2023-02-01T05:06:00;12.50;;;2.38;;
43650;SDS011;29247;50.944;5.382;2023-02-01T05:08:31;10.15;;;1.63;;
43650;SDS011;29247;50.944;5.382;2023-02-01T05:10:57;8.88;;;1.92;;
43650;SDS011;29247;50.944;5.382;2023-02-01T05:13:30;11.20;;;1.92;;
43650;SDS011;29247;50.944;5.382;2023-02-01T05:16:13;16.30;;;2.13;;
43650;SDS011;29247;50.944;5.382;2023-02-01T05:18:39;13.55;;;2.20;;
43650;SDS011;29247;50.944;5.382;2023-02-01T05:21:07;10.45;;;1.88;;
43650;SDS011;29247;50.944;5.382;2023-02-01T05:23:35;13.80;;;2.15;;
43650;SDS011;29247;50.944;5.382;2023-02-01T05:26:21;13.55;;;1.80;;
43650;SDS011;29247;50.944;5.382;2023-02-01T05:28:47;8.30;;;1.90;;
43650;SDS011;29247;50.944;5.382;2023-02-01T05:31:21;23.23;;;3.35;;
43650;SDS011;29247;50.944;5.382;2023-02-01T05:33:47;12.98;;;2.22;;
43650;SDS011;29247;50.944;5.382;2023-02-01T05:36:13;14.52;;;2.35;;
43650;SDS011;29247;50.944;5.382;2023-02-01T05:38:39;7.63;;;2.20;;
43650;SDS011;29247;50.944;5.382;2023-02-01T05:41:07;9.75;;;1.50;;
43650;SDS011;29247;50.944;5.382;2023-02-01T05:43:37;14.80;;;2.65;;
43650;SDS011;29247;50.944;5.382;2023-02-01T05:46:03;7.78;;;1.65;;
43650;SDS011;29247;50.944;5.382;2023-02-01T05:48:28;9.98;;;1.83;;
43650;SDS011;29247;50.944;5.382;2023-02-01T05:50:54;12.55;;;1.98;;
43650;SDS011;29247;50.944;5.382;2023-02-01T05:53:20;9.02;;;2.33;;
43650;SDS011;29247;50.944;5.382;2023-02-01T05:55:46;19.05;;;2.67;;
43650;SDS011;29247;50.944;5.382;2023-02-01T05:58:12;12.10;;;1.95;;
43650;SDS011;29247;50.944;5.382;2023-02-01T06:00:37;10.32;;;2.08;;
43650;SDS011;29247;50.944;5.382;2023-02-01T06:03:03;14.13;;;1.83;;
43650;SDS011;29247;50.944;5.382;2023-02-01T06:05:34;13.57;;;1.98;;
43650;SDS011;29247;50.944;5.382;2023-02-01T06:08:00;6.82;;;1.83;;
43650;SDS011;29247;50.944;5.382;2023-02-01T06:10:28;11.60;;;1.88;;
43650;SDS011;29247;50.944;5.382;2023-02-01T06:12:53;14.57;;;1.65;;
43650;SDS011;29247;50.944;5.382;2023-02-01T06:15:21;12.23;;;1.80;;
43650;SDS011;29247;50.944;5.382;2023-02-01T06:17:47;14.13;;;2.25;;
43650;SDS011;29247;50.944;5.382;2023-02-01T06:20:13;5.57;;;1.67;;
43650;SDS011;29247;50.944;5.382;2023-02-01T06:22:43;7.85;;;2.22;;
43650;SDS011;29247;50.944;5.382;2023-02-01T06:25:09;13.55;;;2.30;;
43650;SDS011;29247;50.944;5.382;2023-02-01T06:27:40;10.13;;;1.83;;
43650;SDS011;29247;50.944;5.382;2023-02-01T06:30:10;9.98;;;1.98;;
43650;SDS011;29247;50.944;5.382;2023-02-01T06:32:38;13.05;;;2.47;;
43650;SDS011;29247;50.944;5.382;2023-02-01T06:35:06;13.85;;;2.17;;
43650;SDS011;29247;50.944;5.382;2023-02-01T06:37:33;10.88;;;2.05;;
43650;SDS011;29247;50.944;5.382;2023-02-01T06:39:59;10.73;;;2.00;;
43650;SDS011;29247;50.944;5.382;2023-02-01T06:42:24;9.07;;;2.13;;
43650;SDS011;29247;50.944;5.382;2023-02-01T06:44:50;11.73;;;2.00;;
43650;SDS011;29247;50.944;5.382;2023-02-01T06:47:16;10.85;;;2.13;;
43650;SDS011;29247;50.944;5.382;2023-02-01T06:49:44;14.50;;;2.60;;
43650;SDS011;29247;50.944;5.382;2023-02-01T06:52:10;15.27;;;2.50;;
43650;SDS011;29247;50.944;5.382;2023-02-01T06:54:36;13.95;;;2.25;;
43650;SDS011;29247;50.944;5.382;2023-02-01T06:57:02;11.32;;;2.28;;
43650;SDS011;29247;50.944;5.382;2023-02-01T06:59:29;12.60;;;1.70;;
43650;SDS011;29247;50.944;5.382;2023-02-01T07:01:54;14.68;;;1.67;;
43650;SDS011;29247;50.944;5.382;2023-02-01T07:04:20;9.52;;;1.67;;
43650;SDS011;29247;50.944;5.382;2023-02-01T07:06:46;6.15;;;1.73;;
43650;SDS011;29247;50.944;5.382;2023-02-01T07:09:12;10.75;;;1.77;;
43650;SDS011;29247;50.944;5.382;2023-02-01T07:11:38;13.98;;;2.08;;
43650;SDS011;29247;50.944;5.382;2023-02-01T07:14:10;9.63;;;2.08;;
43650;SDS011;29247;50.944;5.382;2023-02-01T07:16:36;13.02;;;2.15;;
43650;SDS011;29247;50.944;5.382;2023-02-01T07:19:05;12.98;;;2.53;;
43650;SDS011;29247;50.944;5.382;2023-02-01T07:21:33;12.77;;;2.65;;
43650;SDS011;29247;50.944;5.382;2023-02-01T07:24:01;5.60;;;1.73;;
43650;SDS011;29247;50.944;5.382;2023-02-01T07:26:30;7.93;;;2.17;;
43650;SDS011;29247;50.944;5.382;2023-02-01T07:28:56;10.85;;;2.20;;
43650;SDS011;29247;50.944;5.382;2023-02-01T07:31:22;17.70;;;2.80;;
43650;SDS011;29247;50.944;5.382;2023-02-01T07:33:48;16.25;;;2.88;;
43650;SDS011;29247;50.944;5.382;2023-02-01T07:36:17;8.20;;;2.20;;
43650;SDS011;29247;50.944;5.382;2023-02-01T07:38:44;14.40;;;2.33;;
43650;SDS011;29247;50.944;5.382;2023-02-01T07:41:17;12.48;;;1.80;;
43650;SDS011;29247;50.944;5.382;2023-02-01T07:43:43;9.00;;;2.30;;
43650;SDS011;29247;50.944;5.382;2023-02-01T07:46:12;11.00;;;1.80;;
43650;SDS011;29247;50.944;5.382;2023-02-01T07:48:40;10.88;;;1.88;;
43650;SDS011;29247;50.944;5.382;2023-02-01T07:51:09;11.73;;;3.20;;
43650;SDS011;29247;50.944;5.382;2023-02-01T07:53:41;9.85;;;1.98;;
43650;SDS011;29247;50.944;5.382;2023-02-01T07:56:11;11.55;;;2.58;;
43650;SDS011;29247;50.944;5.382;2023-02-01T07:58:38;9.38;;;1.85;;
43650;SDS011;29247;50.944;5.382;2023-02-01T08:01:04;10.07;;;2.17;;
43650;SDS011;29247;50.944;5.382;2023-02-01T08:03:46;9.88;;;2.08;;
43650;SDS011;29247;50.944;5.382;2023-02-01T08:06:22;7.78;;;2.20;;
43650;SDS011;29247;50.944;5.382;2023-02-01T08:08:49;9.68;;;2.03;;
43650;SDS011;29247;50.944;5.382;2023-02-01T08:11:18;14.48;;;2.33;;
43650;SDS011;29247;50.944;5.382;2023-02-01T08:13:47;10.85;;;2.08;;
43650;SDS011;29247;50.944;5.382;2023-02-01T08:16:14;11.00;;;2.22;;
43650;SDS011;29247;50.944;5.382;2023-02-01T08:18:41;6.60;;;2.15;;
43650;SDS011;29247;50.944;5.382;2023-02-01T08:21:11;12.80;;;2.72;;
43650;SDS011;29247;50.944;5.382;2023-02-01T08:23:41;10.23;;;2.33;;
43650;SDS011;29247;50.944;5.382;2023-02-01T08:26:12;15.23;;;2.40;;
43650;SDS011;29247;50.944;5.382;2023-02-01T08:28:57;13.52;;;1.92;;
43650;SDS011;29247;50.944;5.382;2023-02-01T08:31:25;13.13;;;2.17;;
43650;SDS011;29247;50.944;5.382;2023-02-01T08:33:53;14.20;;;2.47;;
43650;SDS011;29247;50.944;5.382;2023-02-01T08:36:23;12.00;;;2.17;;
43650;SDS011;29247;50.944;5.382;2023-02-01T08:38:52;12.15;;;1.90;;
43650;SDS011;29247;50.944;5.382;2023-02-01T08:41:21;7.45;;;1.98;;
43650;SDS011;29247;50.944;5.382;2023-02-01T08:43:51;8.07;;;2.25;;
43650;SDS011;29247;50.944;5.382;2023-02-01T08:46:19;11.30;;;1.80;;
43650;SDS011;29247;50.944;5.382;2023-02-01T08:48:45;14.20;;;2.15;;
43650;SDS011;29247;50.944;5.382;2023-02-01T08:51:13;11.18;;;3.03;;
43650;SDS011;29247;50.944;5.382;2023-02-01T08:53:45;8.95;;;2.55;;
43650;SDS011;29247;50.944;5.382;2023-02-01T08:56:11;4.78;;;1.80;;
43650;SDS011;29247;50.944;5.382;2023-02-01T08:58:41;12.85;;;2.08;;
43650;SDS011;29247;50.944;5.382;2023-02-01T09:01:09;10.95;;;2.75;;
43650;SDS011;29247;50.944;5.382;2023-02-01T09:03:39;7.45;;;2.20;;
43650;SDS011;29247;50.944;5.382;2023-02-01T09:06:06;12.70;;;1.60;;
43650;SDS011;29247;50.944;5.382;2023-02-01T09:08:34;11.82;;;2.45;;
43650;SDS011;29247;50.944;5.382;2023-02-01T09:11:01;9.98;;;2.08;;
43650;SDS011;29247;50.944;5.382;2023-02-01T09:13:28;10.05;;;2.03;;
43650;SDS011;29247;50.944;5.382;2023-02-01T09:15:58;9.13;;;1.88;;
43650;SDS011;29247;50.944;5.382;2023-02-01T09:18:25;12.95;;;2.03;;
43650;SDS011;29247;50.944;5.382;2023-02-01T09:20:51;9.75;;;2.00;;
43650;SDS011;29247;50.944;5.382;2023-02-01T09:23:21;11.95;;;2.55;;
43650;SDS011;29247;50.944;5.382;2023-02-01T09:25:50;10.98;;;2.03;;
43650;SDS011;29247;50.944;5.382;2023-02-01T09:28:16;12.07;;;1.77;;
43650;SDS011;29247;50.944;5.382;2023-02-01T09:30:43;7.05;;;1.88;;
43650;SDS011;29247;50.944;5.382;2023-02-01T09:33:08;12.27;;;3.75;;
43650;SDS011;29247;50.944;5.382;2023-02-01T09:35:36;14.35;;;1.90;;
43650;SDS011;29247;50.944;5.382;2023-02-01T09:38:06;14.15;;;2.28;;
43650;SDS011;29247;50.944;5.382;2023-02-01T09:40:33;11.45;;;2.15;;
43650;SDS011;29247;50.944;5.382;2023-02-01T09:43:04;10.05;;;1.73;;
43650;SDS011;29247;50.944;5.382;2023-02-01T09:48:41;9.30;;;2.00;;
43650;SDS011;29247;50.944;5.382;2023-02-01T09:51:14;7.50;;;1.40;;
43650;SDS011;29247;50.944;5.382;2023-02-01T09:53:48;9.20;;;2.08;;
43650;SDS011;29247;50.944;5.382;2023-02-01T10:02:01;13.23;;;2.50;;
43650;SDS011;29247;50.944;5.382;2023-02-01T10:04:30;17.85;;;2.20;;
43650;SDS011;29247;50.944;5.382;2023-02-01T10:15:39;11.02;;;2.33;;
43650;SDS011;29247;50.944;5.382;2023-02-01T10:26:22;10.55;;;2.25;;
43650;SDS011;29247;50.944;5.382;2023-02-01T10:28:51;16.00;;;3.17;;
43650;SDS011;29247;50.944;5.382;2023-02-01T10:31:18;11.32;;;2.40;;
43650;SDS011;29247;50.944;5.382;2023-02-01T10:33:49;11.55;;;1.83;;
43650;SDS011;29247;50.944;5.382;2023-02-01T10:36:28;19.67;;;2.58;;
43650;SDS011;29247;50.944;5.382;2023-02-01T10:39:05;14.45;;;2.13;;
43650;SDS011;29247;50.944;5.382;2023-02-01T10:44:05;8.43;;;1.58;;
43650;SDS011;29247;50.944;5.382;2023-02-01T10:46:36;9.40;;;1.70;;
43650;SDS011;29247;50.944;5.382;2023-02-01T10:49:03;9.40;;;1.90;;
43650;SDS011;29247;50.944;5.382;2023-02-01T10:51:45;11.98;;;1.77;;
43650;SDS011;29247;50.944;5.382;2023-02-01T10:54:19;12.63;;;2.92;;
43650;SDS011;29247;50.944;5.382;2023-02-01T10:56:49;11.88;;;2.53;;
43650;SDS011;29247;50.944;5.382;2023-02-01T10:59:16;11.98;;;2.08;;
43650;SDS011;29247;50.944;5.382;2023-02-01T11:01:45;16.37;;;3.17;;
43650;SDS011;29247;50.944;5.382;2023-02-01T11:04:16;15.88;;;3.40;;
43650;SDS011;29247;50.944;5.382;2023-02-01T11:06:46;8.85;;;1.98;;
43650;SDS011;29247;50.944;5.382;2023-02-01T11:09:18;10.43;;;3.28;;
43650;SDS011;29247;50.944;5.382;2023-02-01T11:14:26;15.13;;;2.08;;
43650;SDS011;29247;50.944;5.382;2023-02-01T11:16:59;12.32;;;1.85;;
43650;SDS011;29247;50.944;5.382;2023-02-01T11:19:26;8.95;;;1.75;;
43650;SDS011;29247;50.944;5.382;2023-02-01T11:21:54;12.32;;;2.20;;
43650;SDS011;29247;50.944;5.382;2023-02-01T11:24:29;16.48;;;2.30;;
43650;SDS011;29247;50.944;5.382;2023-02-01T11:29:37;8.65;;;1.85;;
43650;SDS011;29247;50.944;5.382;2023-02-01T11:32:05;8.45;;;2.15;;
43650;SDS011;29247;50.944;5.382;2023-02-01T11:34:47;7.80;;;1.55;;
43650;SDS011;29247;50.944;5.382;2023-02-01T11:37:19;15.63;;;2.22;;
43650;SDS011;29247;50.944;5.382;2023-02-01T11:40:03;11.10;;;1.75;;
43650;SDS011;29247;50.944;5.382;2023-02-01T11:42:58;11.95;;;2.00;;
43650;SDS011;29247;50.944;5.382;2023-02-01T11:45:27;8.90;;;1.77;;
43650;SDS011;29247;50.944;5.382;2023-02-01T11:47:55;11.35;;;2.47;;
43650;SDS011;29247;50.944;5.382;2023-02-01T11:56:11;11.82;;;1.98;;
43650;SDS011;29247;50.944;5.382;2023-02-01T12:02:18;15.40;;;2.00;;
43650;SDS011;29247;50.944;5.382;2023-02-01T12:29:39;8.15;;;1.35;;
43650;SDS011;29247;50.944;5.382;2023-02-01T12:43:55;5.43;;;1.00;;
43650;SDS011;29247;50.944;5.382;2023-02-01T12:52:06;12.50;;;2.08;;
43650;SDS011;29247;50.944;5.382;2023-02-01T12:57:25;8.88;;;1.10;;
43650;SDS011;29247;50.944;5.382;2023-02-01T13:05:27;9.38;;;2.10;;
43650;SDS011;29247;50.944;5.382;2023-02-01T13:08:01;11.50;;;1.38;;
43650;SDS011;29247;50.944;5.382;2023-02-01T13:13:22;7.65;;;1.75;;
43650;SDS011;29247;50.944;5.382;2023-02-01T13:16:38;16.60;;;1.55;;
43650;SDS011;29247;50.944;5.382;2023-02-01T13:19:57;13.55;;;1.60;;
43650;SDS011;29247;50.944;5.382;2023-02-01T13:21:59;7.72;;;1.33;;
43650;SDS011;29247;50.944;5.382;2023-02-01T13:27:01;5.82;;;1.50;;
43650;SDS011;29247;50.944;5.382;2023-02-01T13:29:27;10.25;;;1.75;;
43650;SDS011;29247;50.944;5.382;2023-02-01T13:43:26;8.10;;;1.75;;
43650;SDS011;29247;50.944;5.382;2023-02-01T13:46:02;5.93;;;1.23;;
43650;SDS011;29247;50.944;5.382;2023-02-01T13:51:15;6.97;;;1.42;;
43650;SDS011;29247;50.944;5.382;2023-02-01T13:54:00;11.52;;;2.97;;
43650;SDS011;29247;50.944;5.382;2023-02-01T13:56:25;9.32;;;1.38;;
43650;SDS011;29247;50.944;5.382;2023-02-01T13:58:54;5.03;;;1.15;;
43650;SDS011;29247;50.944;5.382;2023-02-01T14:03:55;6.13;;;1.25;;
43650;SDS011;29247;50.944;5.382;2023-02-01T14:21:54;9.20;;;1.30;;
43650;SDS011;29247;50.944;5.382;2023-02-01T14:27:01;7.10;;;1.42;;
43650;SDS011;29247;50.944;5.382;2023-02-01T14:29:37;4.40;;;1.50;;
43650;SDS011;29247;50.944;5.382;2023-02-01T14:32:18;7.50;;;1.30;;
43650;SDS011;29247;50.944;5.382;2023-02-01T14:56:04;12.18;;;1.40;;
43650;SDS011;29247;50.944;5.382;2023-02-01T15:01:17;5.78;;;2.20;;
43650;SDS011;29247;50.944;5.382;2023-02-01T15:03:45;10.70;;;1.38;;
43650;SDS011;29247;50.944;5.382;2023-02-01T15:06:18;8.52;;;1.60;;
43650;SDS011;29247;50.944;5.382;2023-02-01T15:08:51;8.93;;;1.23;;
43650;SDS011;29247;50.944;5.382;2023-02-01T15:11:23;13.43;;;1.50;;
43650;SDS011;29247;50.944;5.382;2023-02-01T15:13:49;7.20;;;1.30;;
43650;SDS011;29247;50.944;5.382;2023-02-01T15:18:47;7.50;;;1.13;;
43650;SDS011;29247;50.944;5.382;2023-02-01T15:21:18;6.78;;;1.40;;
43650;SDS011;29247;50.944;5.382;2023-02-01T15:23:50;7.50;;;1.42;;
43650;SDS011;29247;50.944;5.382;2023-02-01T15:27:04;10.18;;;1.35;;
43650;SDS011;29247;50.944;5.382;2023-02-01T15:29:33;7.38;;;1.95;;
43650;SDS011;29247;50.944;5.382;2023-02-01T15:31:59;11.45;;;1.88;;
43650;SDS011;29247;50.944;5.382;2023-02-01T15:34:43;9.73;;;1.50;;
43650;SDS011;29247;50.944;5.382;2023-02-01T15:37:14;11.20;;;1.50;;
43650;SDS011;29247;50.944;5.382;2023-02-01T15:42:49;6.82;;;1.98;;
43650;SDS011;29247;50.944;5.382;2023-02-01T15:45:25;8.43;;;1.33;;
43650;SDS011;29247;50.944;5.382;2023-02-01T15:47:56;9.60;;;1.65;;
43650;SDS011;29247;50.944;5.382;2023-02-01T15:50:29;10.48;;;2.83;;
43650;SDS011;29247;50.944;5.382;2023-02-01T15:52:58;6.63;;;1.17;;
43650;SDS011;29247;50.944;5.382;2023-02-01T15:55:44;6.32;;;1.50;;
43650;SDS011;29247;50.944;5.382;2023-02-01T15:58:20;6.80;;;1.27;;
43650;SDS011;29247;50.944;5.382;2023-02-01T16:06:00;7.63;;;2.33;;
43650;SDS011;29247;50.944;5.382;2023-02-01T16:08:29;7.22;;;1.58;;
43650;SDS011;29247;50.944;5.382;2023-02-01T16:11:39;6.55;;;1.65;;
43650;SDS011;29247;50.944;5.382;2023-02-01T16:13:52;5.85;;;1.33;;
43650;SDS011;29247;50.944;5.382;2023-02-01T16:16:18;6.18;;;1.65;;
43650;SDS011;29247;50.944;5.382;2023-02-01T16:18:44;9.88;;;1.58;;
43650;SDS011;29247;50.944;5.382;2023-02-01T16:21:10;8.65;;;1.77;;
43650;SDS011;29247;50.944;5.382;2023-02-01T16:23:38;9.95;;;1.85;;
43650;SDS011;29247;50.944;5.382;2023-02-01T16:26:05;12.02;;;1.40;;
43650;SDS011;29247;50.944;5.382;2023-02-01T16:28:31;9.15;;;1.60;;
43650;SDS011;29247;50.944;5.382;2023-02-01T16:31:01;7.30;;;1.63;;
43650;SDS011;29247;50.944;5.382;2023-02-01T16:33:29;8.52;;;1.65;;
43650;SDS011;29247;50.944;5.382;2023-02-01T16:35:57;8.55;;;1.63;;
43650;SDS011;29247;50.944;5.382;2023-02-01T16:38:27;10.47;;;1.93;;
43650;SDS011;29247;50.944;5.382;2023-02-01T16:40:53;8.15;;;1.83;;
43650;SDS011;29247;50.944;5.382;2023-02-01T16:43:23;11.60;;;1.77;;
43650;SDS011;29247;50.944;5.382;2023-02-01T16:45:53;10.50;;;1.50;;
43650;SDS011;29247;50.944;5.382;2023-02-01T16:48:25;18.10;;;1.95;;
43650;SDS011;29247;50.944;5.382;2023-02-01T16:50:56;9.38;;;1.73;;
43650;SDS011;29247;50.944;5.382;2023-02-01T16:53:26;7.40;;;1.60;;
43650;SDS011;29247;50.944;5.382;2023-02-01T16:55:53;10.38;;;2.20;;
43650;SDS011;29247;50.944;5.382;2023-02-01T16:58:22;9.68;;;1.60;;
43650;SDS011;29247;50.944;5.382;2023-02-01T17:00:51;10.55;;;1.67;;
43650;SDS011;29247;50.944;5.382;2023-02-01T17:03:18;14.68;;;2.45;;
43650;SDS011;29247;50.944;5.382;2023-02-01T17:05:49;4.97;;;1.40;;
43650;SDS011;29247;50.944;5.382;2023-02-01T17:08:23;16.60;;;1.90;;
43650;SDS011;29247;50.944;5.382;2023-02-01T17:10:55;11.20;;;2.42;;
43650;SDS011;29247;50.944;5.382;2023-02-01T17:13:24;9.82;;;1.45;;
43650;SDS011;29247;50.944;5.382;2023-02-01T17:16:06;9.73;;;1.65;;
43650;SDS011;29247;50.944;5.382;2023-02-01T17:18:46;13.65;;;1.48;;
43650;SDS011;29247;50.944;5.382;2023-02-01T17:21:28;8.75;;;1.80;;
43650;SDS011;29247;50.944;5.382;2023-02-01T17:23:55;12.85;;;1.75;;
43650;SDS011;29247;50.944;5.382;2023-02-01T17:26:23;7.90;;;2.03;;
43650;SDS011;29247;50.944;5.382;2023-02-01T17:28:49;9.73;;;1.85;;
43650;SDS011;29247;50.944;5.382;2023-02-01T17:31:20;12.88;;;2.05;;
43650;SDS011;29247;50.944;5.382;2023-02-01T17:33:46;9.55;;;1.70;;
43650;SDS011;29247;50.944;5.382;2023-02-01T17:36:12;9.23;;;1.30;;
43650;SDS011;29247;50.944;5.382;2023-02-01T17:38:42;16.63;;;1.90;;
43650;SDS011;29247;50.944;5.382;2023-02-01T17:41:11;7.30;;;1.40;;
43650;SDS011;29247;50.944;5.382;2023-02-01T17:43:39;7.45;;;1.63;;
43650;SDS011;29247;50.944;5.382;2023-02-01T17:48:38;6.95;;;1.58;;
43650;SDS011;29247;50.944;5.382;2023-02-01T17:51:08;4.07;;;1.30;;
43650;SDS011;29247;50.944;5.382;2023-02-01T17:53:46;11.73;;;1.60;;
43650;SDS011;29247;50.944;5.382;2023-02-01T17:56:14;9.60;;;2.10;;
43650;SDS011;29247;50.944;5.382;2023-02-01T17:58:42;10.35;;;1.70;;
43650;SDS011;29247;50.944;5.382;2023-02-01T18:01:14;8.85;;;1.67;;
43650;SDS011;29247;50.944;5.382;2023-02-01T18:03:46;9.23;;;1.48;;
43650;SDS011;29247;50.944;5.382;2023-02-01T18:06:18;14.20;;;2.05;;
43650;SDS011;29247;50.944;5.382;2023-02-01T18:08:55;8.20;;;1.63;;
43650;SDS011;29247;50.944;5.382;2023-02-01T18:11:21;5.82;;;1.70;;
43650;SDS011;29247;50.944;5.382;2023-02-01T18:13:49;11.75;;;1.60;;
43650;SDS011;29247;50.944;5.382;2023-02-01T18:18:48;7.65;;;1.80;;
43650;SDS011;29247;50.944;5.382;2023-02-01T18:21:14;12.52;;;1.65;;
43650;SDS011;29247;50.944;5.382;2023-02-01T18:23:42;7.22;;;1.77;;
43650;SDS011;29247;50.944;5.382;2023-02-01T18:26:10;9.27;;;1.85;;
43650;SDS011;29247;50.944;5.382;2023-02-01T18:28:40;8.90;;;2.03;;
43650;SDS011;29247;50.944;5.382;2023-02-01T18:31:07;14.50;;;1.63;;
43650;SDS011;29247;50.944;5.382;2023-02-01T18:33:51;12.32;;;2.25;;
43650;SDS011;29247;50.944;5.382;2023-02-01T18:38:44;11.25;;;1.60;;
43650;SDS011;29247;50.944;5.382;2023-02-01T18:41:12;8.35;;;1.50;;